Osceola, IA (50213)

1:44 AM CDT on September 28, 2016 (GMT -0500)
Osceola Municipal | | Change Station

Elev 1109 ft 41.05 °N, 93.69 °W | Updated 9 minutes ago

Mostly Cloudy
Mostly Cloudy
56 °F
Feels Like 56 °F
N
5
Wind Variable Wind from NW

Today
High -- | Low -- °F
--% Chance of Precip.
Yesterday
High -- | Low -- °F
Precip. -- in
Pressure 29.86 in
Visibility 10.0 miles
Clouds Mostly Cloudy 12000 ft
Dew Point 48 °F
Humidity 76%
Rainfall 0.00 in
Snow Depth Not available.
7:09 AM 7:01 PM
Waning Crescent, 7% visible
METAR KI75 280635Z AUTO 32004KT 10SM BKN120 13/09 A2986 RMK AO2 T01310090
Pressure 29.86 in
Visibility 10.0 miles
Clouds Mostly Cloudy 12000 ft
Dew Point 48 °F
Humidity 76%
Rainfall 0.00 in
Snow Depth Not available.
7:09 AM 7:01 PM
Waning Crescent, 7% visible
METAR KI75 280635Z AUTO 32004KT 10SM BKN120 13/09 A2986 RMK AO2 T01310090

10-Day Weather Forecast

Almanac

Astronomy

Sep. 28, 2016 Rise Set
Actual Time
Civil Twilight
Nautical Twilight
Astronomical Twilight
Moon
Length of Visible Light
Length of Day
Tomorrow will be .
, % of the Moon is Illuminated

Today's Extremes

State Highs State Lows

Community

WunderPhotos

Upload Photos

1,942,216 photos uploaded!

WunderBlog® & News

Nearby

Air Quality

  Air Quality AQ Index Pollutant
Not available.

Snow Depth

Station Depth Elevation

Earthquake Activity

City Distance Mag. Time & Date
Minimum magnitude displayed is 2.5.

Coastal Water Temperatures

Place Temperature

Stations

Nearby Weather Stations

Station Location Temp. Windchill Dew Point Humidity Wind Precip. Elev Updated Type
                   

Watches & Warnings

There are currently no watches in effect.